sensor_id;sensor_type;location;lat;lon;timestamp;pressure;altitude;pressure_sealevel;temperature;humidity
72570;BME280;60594;50.204;8.844;2022-08-26T00:01:17;99645.66;;;21.64;59.32
72570;BME280;60594;50.204;8.844;2022-08-26T00:03:44;99642.72;;;21.33;59.25
72570;BME280;60594;50.204;8.844;2022-08-26T00:06:11;99645.44;;;20.86;61.16
72570;BME280;60594;50.204;8.844;2022-08-26T00:08:39;99641.31;;;20.97;61.40
72570;BME280;60594;50.204;8.844;2022-08-26T00:11:06;99632.94;;;20.92;60.95
72570;BME280;60594;50.204;8.844;2022-08-26T00:13:34;99640.81;;;20.80;61.27
72570;BME280;60594;50.204;8.844;2022-08-26T00:16:03;99643.44;;;21.01;60.87
72570;BME280;60594;50.204;8.844;2022-08-26T00:18:30;99635.78;;;21.18;60.55
72570;BME280;60594;50.204;8.844;2022-08-26T00:20:57;99640.22;;;21.38;60.61
72570;BME280;60594;50.204;8.844;2022-08-26T00:23:24;99654.81;;;21.44;60.05
72570;BME280;60594;50.204;8.844;2022-08-26T00:25:51;99651.06;;;21.38;60.53
72570;BME280;60594;50.204;8.844;2022-08-26T00:28:18;99662.09;;;21.43;60.49
72570;BME280;60594;50.204;8.844;2022-08-26T00:30:44;99658.13;;;21.33;60.20
72570;BME280;60594;50.204;8.844;2022-08-26T00:33:16;99654.16;;;21.29;59.16
72570;BME280;60594;50.204;8.844;2022-08-26T00:35:43;99659.56;;;21.16;60.17
72570;BME280;60594;50.204;8.844;2022-08-26T00:38:10;99648.06;;;21.07;60.12
72570;BME280;60594;50.204;8.844;2022-08-26T00:40:41;99652.81;;;20.99;60.74
72570;BME280;60594;50.204;8.844;2022-08-26T00:43:08;99636.91;;;20.89;60.90
72570;BME280;60594;50.204;8.844;2022-08-26T00:46:02;99643.41;;;20.95;60.79
72570;BME280;60594;50.204;8.844;2022-08-26T00:48:32;99639.63;;;20.89;60.40
72570;BME280;60594;50.204;8.844;2022-08-26T00:51:08;99636.06;;;20.89;60.43
72570;BME280;60594;50.204;8.844;2022-08-26T00:53:41;99640.22;;;20.91;60.02
72570;BME280;60594;50.204;8.844;2022-08-26T00:56:31;99650.84;;;20.86;60.74
72570;BME280;60594;50.204;8.844;2022-08-26T00:59:03;99640.56;;;20.69;61.11
72570;BME280;60594;50.204;8.844;2022-08-26T01:01:32;99641.69;;;20.87;61.42
72570;BME280;60594;50.204;8.844;2022-08-26T01:03:59;99640.31;;;20.98;60.80
72570;BME280;60594;50.204;8.844;2022-08-26T01:06:26;99640.53;;;21.03;60.69
72570;BME280;60594;50.204;8.844;2022-08-26T01:08:54;99641.78;;;21.00;60.50
72570;BME280;60594;50.204;8.844;2022-08-26T01:11:21;99642.19;;;21.04;60.44
72570;BME280;60594;50.204;8.844;2022-08-26T01:13:51;99643.25;;;21.09;60.68
72570;BME280;60594;50.204;8.844;2022-08-26T01:16:20;99646.81;;;21.10;60.44
72570;BME280;60594;50.204;8.844;2022-08-26T01:18:47;99635.25;;;20.88;60.19
72570;BME280;60594;50.204;8.844;2022-08-26T01:21:27;99642.31;;;20.89;60.71
72570;BME280;60594;50.204;8.844;2022-08-26T01:23:55;99640.06;;;20.93;60.38
72570;BME280;60594;50.204;8.844;2022-08-26T01:26:35;99640.84;;;20.87;60.27
72570;BME280;60594;50.204;8.844;2022-08-26T01:29:08;99625.63;;;20.86;60.17
72570;BME280;60594;50.204;8.844;2022-08-26T01:31:42;99626.06;;;20.89;60.78
72570;BME280;60594;50.204;8.844;2022-08-26T01:34:22;99634.66;;;20.93;60.18
72570;BME280;60594;50.204;8.844;2022-08-26T01:36:55;99631.56;;;21.02;59.93
72570;BME280;60594;50.204;8.844;2022-08-26T01:39:24;99631.81;;;21.14;59.71
72570;BME280;60594;50.204;8.844;2022-08-26T01:41:53;99619.25;;;21.06;59.76
72570;BME280;60594;50.204;8.844;2022-08-26T01:44:26;99633.50;;;20.74;60.57
72570;BME280;60594;50.204;8.844;2022-08-26T01:46:55;99635.50;;;20.93;60.79
72570;BME280;60594;50.204;8.844;2022-08-26T01:49:23;99639.69;;;21.02;59.44
72570;BME280;60594;50.204;8.844;2022-08-26T01:51:52;99634.72;;;21.06;59.15
72570;BME280;60594;50.204;8.844;2022-08-26T01:54:21;99634.06;;;21.04;59.53
72570;BME280;60594;50.204;8.844;2022-08-26T01:56:48;99640.75;;;21.08;59.08
72570;BME280;60594;50.204;8.844;2022-08-26T01:59:17;99643.06;;;21.11;59.92
72570;BME280;60594;50.204;8.844;2022-08-26T02:01:47;99642.56;;;20.94;60.29
72570;BME280;60594;50.204;8.844;2022-08-26T02:04:24;99649.38;;;20.84;61.19
72570;BME280;60594;50.204;8.844;2022-08-26T02:06:53;99640.59;;;20.75;61.35
72570;BME280;60594;50.204;8.844;2022-08-26T02:09:20;99650.56;;;20.68;61.75
72570;BME280;60594;50.204;8.844;2022-08-26T02:11:47;99654.47;;;20.59;61.67
72570;BME280;60594;50.204;8.844;2022-08-26T02:14:16;99659.09;;;20.31;62.62
72570;BME280;60594;50.204;8.844;2022-08-26T02:16:46;99645.44;;;20.46;61.93
72570;BME280;60594;50.204;8.844;2022-08-26T02:19:20;99651.88;;;20.45;62.14
72570;BME280;60594;50.204;8.844;2022-08-26T02:21:48;99650.78;;;20.39;62.48
72570;BME280;60594;50.204;8.844;2022-08-26T02:24:21;99644.50;;;20.32;62.20
72570;BME280;60594;50.204;8.844;2022-08-26T02:26:49;99643.91;;;20.37;62.44
72570;BME280;60594;50.204;8.844;2022-08-26T02:29:24;99660.66;;;20.47;62.35
72570;BME280;60594;50.204;8.844;2022-08-26T02:31:52;99653.50;;;20.39;62.18
72570;BME280;60594;50.204;8.844;2022-08-26T02:34:27;99661.19;;;20.36;62.50
72570;BME280;60594;50.204;8.844;2022-08-26T02:37:05;99653.50;;;20.39;61.65
72570;BME280;60594;50.204;8.844;2022-08-26T02:39:33;99639.06;;;20.26;62.29
72570;BME280;60594;50.204;8.844;2022-08-26T02:42:01;99649.50;;;20.29;62.46
72570;BME280;60594;50.204;8.844;2022-08-26T02:44:28;99647.63;;;20.29;62.82
72570;BME280;60594;50.204;8.844;2022-08-26T02:46:54;99647.09;;;20.40;62.53
72570;BME280;60594;50.204;8.844;2022-08-26T02:49:22;99660.00;;;20.45;62.34
72570;BME280;60594;50.204;8.844;2022-08-26T02:51:50;99659.56;;;20.41;62.41
72570;BME280;60594;50.204;8.844;2022-08-26T02:54:18;99653.75;;;20.44;62.34
72570;BME280;60594;50.204;8.844;2022-08-26T02:56:46;99650.41;;;20.42;62.40
72570;BME280;60594;50.204;8.844;2022-08-26T02:59:12;99657.47;;;20.43;62.33
72570;BME280;60594;50.204;8.844;2022-08-26T03:01:40;99652.06;;;20.43;62.53
72570;BME280;60594;50.204;8.844;2022-08-26T03:04:09;99644.81;;;20.50;62.03
72570;BME280;60594;50.204;8.844;2022-08-26T03:06:37;99638.59;;;20.50;62.19
72570;BME280;60594;50.204;8.844;2022-08-26T03:09:04;99635.88;;;20.50;62.54
72570;BME280;60594;50.204;8.844;2022-08-26T03:11:32;99633.44;;;20.61;61.97
72570;BME280;60594;50.204;8.844;2022-08-26T03:13:59;99625.97;;;20.63;62.21
72570;BME280;60594;50.204;8.844;2022-08-26T03:16:26;99633.56;;;20.47;62.03
72570;BME280;60594;50.204;8.844;2022-08-26T03:18:53;99631.53;;;20.55;62.04
72570;BME280;60594;50.204;8.844;2022-08-26T03:21:19;99642.22;;;20.63;62.24
72570;BME280;60594;50.204;8.844;2022-08-26T03:23:46;99638.28;;;20.72;61.99
72570;BME280;60594;50.204;8.844;2022-08-26T03:26:14;99622.41;;;20.69;61.64
72570;BME280;60594;50.204;8.844;2022-08-26T03:28:41;99628.88;;;20.68;61.86
72570;BME280;60594;50.204;8.844;2022-08-26T03:31:27;99627.44;;;20.72;61.77
72570;BME280;60594;50.204;8.844;2022-08-26T03:33:54;99635.25;;;20.54;61.58
72570;BME280;60594;50.204;8.844;2022-08-26T03:36:21;99636.13;;;20.61;61.86
72570;BME280;60594;50.204;8.844;2022-08-26T03:38:48;99629.06;;;20.60;62.36
72570;BME280;60594;50.204;8.844;2022-08-26T03:41:14;99629.59;;;20.43;62.83
72570;BME280;60594;50.204;8.844;2022-08-26T03:43:41;99623.41;;;20.55;62.01
72570;BME280;60594;50.204;8.844;2022-08-26T03:46:09;99629.44;;;20.51;62.58
72570;BME280;60594;50.204;8.844;2022-08-26T03:48:37;99633.63;;;20.60;62.03
72570;BME280;60594;50.204;8.844;2022-08-26T03:51:10;99629.28;;;20.65;62.07
72570;BME280;60594;50.204;8.844;2022-08-26T03:53:37;99634.09;;;20.70;61.62
72570;BME280;60594;50.204;8.844;2022-08-26T03:56:04;99632.25;;;20.70;61.49
72570;BME280;60594;50.204;8.844;2022-08-26T03:58:32;99638.03;;;20.61;62.17
72570;BME280;60594;50.204;8.844;2022-08-26T04:00:58;99631.97;;;20.59;61.86
72570;BME280;60594;50.204;8.844;2022-08-26T04:03:25;99637.97;;;20.54;62.34
72570;BME280;60594;50.204;8.844;2022-08-26T04:06:11;99632.13;;;20.51;62.80
72570;BME280;60594;50.204;8.844;2022-08-26T04:08:38;99629.78;;;20.41;63.13
72570;BME280;60594;50.204;8.844;2022-08-26T04:11:05;99630.91;;;20.53;62.70
72570;BME280;60594;50.204;8.844;2022-08-26T04:13:31;99626.06;;;20.49;62.94
72570;BME280;60594;50.204;8.844;2022-08-26T04:15:58;99622.16;;;20.51;62.62
72570;BME280;60594;50.204;8.844;2022-08-26T04:18:24;99629.66;;;20.56;62.34
72570;BME280;60594;50.204;8.844;2022-08-26T04:20:53;99627.56;;;20.51;63.18
72570;BME280;60594;50.204;8.844;2022-08-26T04:23:19;99624.03;;;20.57;62.88
72570;BME280;60594;50.204;8.844;2022-08-26T04:25:46;99630.31;;;20.58;62.37
72570;BME280;60594;50.204;8.844;2022-08-26T04:28:13;99628.00;;;20.55;62.67
72570;BME280;60594;50.204;8.844;2022-08-26T04:30:40;99625.75;;;20.65;62.26
72570;BME280;60594;50.204;8.844;2022-08-26T04:33:06;99639.34;;;20.78;61.97
72570;BME280;60594;50.204;8.844;2022-08-26T04:35:33;99625.13;;;20.69;62.17
72570;BME280;60594;50.204;8.844;2022-08-26T04:38:02;99629.34;;;20.72;62.13
72570;BME280;60594;50.204;8.844;2022-08-26T04:40:28;99630.53;;;20.69;62.17
72570;BME280;60594;50.204;8.844;2022-08-26T04:42:55;99636.41;;;20.73;62.45
72570;BME280;60594;50.204;8.844;2022-08-26T04:45:22;99634.06;;;20.63;62.31
72570;BME280;60594;50.204;8.844;2022-08-26T04:47:55;99646.78;;;20.63;62.34
72570;BME280;60594;50.204;8.844;2022-08-26T04:50:22;99640.47;;;20.56;62.54
72570;BME280;60594;50.204;8.844;2022-08-26T04:52:50;99640.09;;;20.59;62.44
72570;BME280;60594;50.204;8.844;2022-08-26T04:55:17;99630.91;;;20.53;62.81
72570;BME280;60594;50.204;8.844;2022-08-26T04:57:43;99653.03;;;20.63;62.75
72570;BME280;60594;50.204;8.844;2022-08-26T05:00:10;99640.50;;;20.62;62.80
72570;BME280;60594;50.204;8.844;2022-08-26T05:02:38;99649.94;;;20.66;63.00
72570;BME280;60594;50.204;8.844;2022-08-26T05:05:05;99634.31;;;20.75;62.83
72570;BME280;60594;50.204;8.844;2022-08-26T05:07:33;99629.38;;;20.85;62.51
72570;BME280;60594;50.204;8.844;2022-08-26T05:10:01;99636.72;;;20.91;62.25
72570;BME280;60594;50.204;8.844;2022-08-26T05:12:28;99632.38;;;20.96;62.62
72570;BME280;60594;50.204;8.844;2022-08-26T05:14:55;99632.31;;;20.90;62.75
72570;BME280;60594;50.204;8.844;2022-08-26T05:17:22;99640.72;;;21.01;62.85
72570;BME280;60594;50.204;8.844;2022-08-26T05:19:48;99644.47;;;21.00;62.86
72570;BME280;60594;50.204;8.844;2022-08-26T05:22:16;99635.94;;;21.03;62.63
72570;BME280;60594;50.204;8.844;2022-08-26T05:24:42;99640.13;;;21.06;63.11
72570;BME280;60594;50.204;8.844;2022-08-26T05:27:09;99644.34;;;21.21;61.43
72570;BME280;60594;50.204;8.844;2022-08-26T05:29:35;99647.22;;;21.13;62.60
72570;BME280;60594;50.204;8.844;2022-08-26T05:32:02;99653.06;;;21.10;62.37
72570;BME280;60594;50.204;8.844;2022-08-26T05:34:29;99647.84;;;21.09;61.61
72570;BME280;60594;50.204;8.844;2022-08-26T05:36:55;99642.81;;;20.99;62.20
72570;BME280;60594;50.204;8.844;2022-08-26T05:39:22;99644.84;;;20.91;62.13
72570;BME280;60594;50.204;8.844;2022-08-26T05:41:50;99647.75;;;20.89;62.43
72570;BME280;60594;50.204;8.844;2022-08-26T05:44:16;99653.78;;;20.91;62.05
72570;BME280;60594;50.204;8.844;2022-08-26T05:46:44;99655.84;;;20.83;62.51
72570;BME280;60594;50.204;8.844;2022-08-26T05:49:13;99670.81;;;20.79;63.23
72570;BME280;60594;50.204;8.844;2022-08-26T05:51:42;99657.59;;;20.63;63.62
72570;BME280;60594;50.204;8.844;2022-08-26T05:54:10;99657.22;;;20.66;63.79
72570;BME280;60594;50.204;8.844;2022-08-26T05:56:38;99665.75;;;20.69;63.71
72570;BME280;60594;50.204;8.844;2022-08-26T05:59:05;99654.69;;;20.64;64.12
72570;BME280;60594;50.204;8.844;2022-08-26T06:01:32;99662.63;;;20.66;63.87
72570;BME280;60594;50.204;8.844;2022-08-26T06:03:59;99667.84;;;20.67;64.21
72570;BME280;60594;50.204;8.844;2022-08-26T06:06:29;99677.22;;;20.65;64.30
72570;BME280;60594;50.204;8.844;2022-08-26T06:08:56;99669.50;;;20.68;64.56
72570;BME280;60594;50.204;8.844;2022-08-26T06:11:26;99670.94;;;20.64;64.40
72570;BME280;60594;50.204;8.844;2022-08-26T06:13:54;99661.59;;;20.67;64.65
72570;BME280;60594;50.204;8.844;2022-08-26T06:16:22;99677.66;;;20.75;64.92
72570;BME280;60594;50.204;8.844;2022-08-26T06:18:49;99673.09;;;20.75;64.20
72570;BME280;60594;50.204;8.844;2022-08-26T06:21:31;99676.69;;;20.82;64.25
72570;BME280;60594;50.204;8.844;2022-08-26T06:24:01;99678.13;;;20.85;64.24
72570;BME280;60594;50.204;8.844;2022-08-26T06:26:49;99673.38;;;20.87;64.25
72570;BME280;60594;50.204;8.844;2022-08-26T06:29:17;99675.28;;;20.93;64.69
72570;BME280;60594;50.204;8.844;2022-08-26T06:31:43;99684.63;;;20.90;63.89
72570;BME280;60594;50.204;8.844;2022-08-26T06:34:10;99694.91;;;20.95;63.57
72570;BME280;60594;50.204;8.844;2022-08-26T06:36:36;99696.38;;;20.97;63.94
72570;BME280;60594;50.204;8.844;2022-08-26T06:39:07;99696.56;;;20.96;63.86
72570;BME280;60594;50.204;8.844;2022-08-26T06:41:36;99685.31;;;20.92;64.03
72570;BME280;60594;50.204;8.844;2022-08-26T06:44:04;99700.31;;;20.95;64.29
72570;BME280;60594;50.204;8.844;2022-08-26T06:46:31;99686.41;;;21.04;63.48
72570;BME280;60594;50.204;8.844;2022-08-26T06:48:58;99689.97;;;21.11;63.34
72570;BME280;60594;50.204;8.844;2022-08-26T06:51:30;99688.31;;;21.17;63.23
72570;BME280;60594;50.204;8.844;2022-08-26T06:53:58;99690.00;;;21.18;63.20
72570;BME280;60594;50.204;8.844;2022-08-26T06:56:33;99693.75;;;21.17;63.35
72570;BME280;60594;50.204;8.844;2022-08-26T06:59:01;99692.69;;;21.18;63.31
72570;BME280;60594;50.204;8.844;2022-08-26T07:01:30;99696.69;;;21.22;63.10
72570;BME280;60594;50.204;8.844;2022-08-26T07:03:59;99696.69;;;21.22;63.38
72570;BME280;60594;50.204;8.844;2022-08-26T07:06:26;99697.75;;;21.27;63.07
72570;BME280;60594;50.204;8.844;2022-08-26T07:08:59;99701.09;;;21.36;62.90
72570;BME280;60594;50.204;8.844;2022-08-26T07:11:31;99702.38;;;21.40;63.07
72570;BME280;60594;50.204;8.844;2022-08-26T07:13:58;99704.47;;;21.44;62.60
72570;BME280;60594;50.204;8.844;2022-08-26T07:16:25;99703.03;;;21.48;62.92
72570;BME280;60594;50.204;8.844;2022-08-26T07:18:53;99698.25;;;21.57;62.64
72570;BME280;60594;50.204;8.844;2022-08-26T07:21:20;99702.03;;;21.69;62.42
72570;BME280;60594;50.204;8.844;2022-08-26T07:23:47;99704.56;;;21.77;61.92
72570;BME280;60594;50.204;8.844;2022-08-26T07:26:17;99702.72;;;21.84;64.18
72570;BME280;60594;50.204;8.844;2022-08-26T07:28:46;99706.88;;;21.86;62.22
72570;BME280;60594;50.204;8.844;2022-08-26T07:31:14;99703.75;;;21.96;61.26
72570;BME280;60594;50.204;8.844;2022-08-26T07:33:42;99705.25;;;22.05;61.51
72570;BME280;60594;50.204;8.844;2022-08-26T07:36:10;99695.00;;;22.07;61.34
72570;BME280;60594;50.204;8.844;2022-08-26T07:38:37;99702.94;;;22.21;60.92
72570;BME280;60594;50.204;8.844;2022-08-26T07:41:05;99702.94;;;22.28;61.14
72570;BME280;60594;50.204;8.844;2022-08-26T07:43:33;99703.97;;;22.40;61.65
72570;BME280;60594;50.204;8.844;2022-08-26T07:45:59;99701.47;;;22.45;61.56
72570;BME280;60594;50.204;8.844;2022-08-26T07:48:26;99696.03;;;22.51;61.30
72570;BME280;60594;50.204;8.844;2022-08-26T07:50:52;99699.78;;;22.63;60.32
72570;BME280;60594;50.204;8.844;2022-08-26T07:53:20;99698.28;;;22.80;59.45
72570;BME280;60594;50.204;8.844;2022-08-26T07:55:46;99695.75;;;22.85;59.11
72570;BME280;60594;50.204;8.844;2022-08-26T07:58:13;99690.72;;;22.89;58.97
72570;BME280;60594;50.204;8.844;2022-08-26T08:00:39;99698.19;;;23.00;58.38
72570;BME280;60594;50.204;8.844;2022-08-26T08:03:06;99698.88;;;22.95;59.28
72570;BME280;60594;50.204;8.844;2022-08-26T08:05:33;99696.31;;;23.00;58.94
72570;BME280;60594;50.204;8.844;2022-08-26T08:08:01;99697.34;;;23.06;59.33
72570;BME280;60594;50.204;8.844;2022-08-26T08:10:28;99698.59;;;23.10;58.27
72570;BME280;60594;50.204;8.844;2022-08-26T08:12:56;99703.22;;;23.10;58.47
72570;BME280;60594;50.204;8.844;2022-08-26T08:15:25;99705.06;;;23.16;58.39
72570;BME280;60594;50.204;8.844;2022-08-26T08:17:53;99702.75;;;23.19;58.62
72570;BME280;60594;50.204;8.844;2022-08-26T08:20:20;99697.09;;;23.21;58.53
72570;BME280;60594;50.204;8.844;2022-08-26T08:22:47;99702.97;;;23.24;58.04
72570;BME280;60594;50.204;8.844;2022-08-26T08:25:14;99693.75;;;23.25;58.38
72570;BME280;60594;50.204;8.844;2022-08-26T08:27:42;99698.72;;;23.35;57.96
72570;BME280;60594;50.204;8.844;2022-08-26T08:30:11;99703.69;;;23.44;57.88
72570;BME280;60594;50.204;8.844;2022-08-26T08:32:38;99706.34;;;23.57;57.63
72570;BME280;60594;50.204;8.844;2022-08-26T08:35:05;99694.34;;;23.71;57.74
72570;BME280;60594;50.204;8.844;2022-08-26T08:37:34;99699.03;;;23.89;56.97
72570;BME280;60594;50.204;8.844;2022-08-26T08:40:02;99692.19;;;24.11;56.80
72570;BME280;60594;50.204;8.844;2022-08-26T08:42:52;99699.56;;;24.28;55.67
72570;BME280;60594;50.204;8.844;2022-08-26T08:45:39;99691.94;;;24.37;54.76
72570;BME280;60594;50.204;8.844;2022-08-26T08:48:21;99686.44;;;24.43;55.40
72570;BME280;60594;50.204;8.844;2022-08-26T08:50:52;99687.19;;;24.75;55.29
72570;BME280;60594;50.204;8.844;2022-08-26T08:53:24;99686.88;;;25.19;53.04
72570;BME280;60594;50.204;8.844;2022-08-26T08:56:30;99685.19;;;25.54;51.90
72570;BME280;60594;50.204;8.844;2022-08-26T08:59:21;99680.47;;;26.02;51.00
72570;BME280;60594;50.204;8.844;2022-08-26T09:04:51;99675.19;;;26.88;48.98
72570;BME280;60594;50.204;8.844;2022-08-26T09:07:25;99680.34;;;27.12;47.46
72570;BME280;60594;50.204;8.844;2022-08-26T09:10:29;99669.25;;;27.19;47.58
72570;BME280;60594;50.204;8.844;2022-08-26T09:12:46;99667.31;;;27.42;47.57
72570;BME280;60594;50.204;8.844;2022-08-26T09:15:21;99671.69;;;27.43;46.91
72570;BME280;60594;50.204;8.844;2022-08-26T09:18:00;99669.00;;;27.32;46.67
72570;BME280;60594;50.204;8.844;2022-08-26T09:20:43;99671.31;;;27.51;47.39
72570;BME280;60594;50.204;8.844;2022-08-26T09:23:12;99670.22;;;27.80;45.67
72570;BME280;60594;50.204;8.844;2022-08-26T09:25:45;99664.16;;;27.78;45.93
72570;BME280;60594;50.204;8.844;2022-08-26T09:28:19;99665.69;;;28.02;46.24
72570;BME280;60594;50.204;8.844;2022-08-26T09:30:58;99665.38;;;28.32;44.20
72570;BME280;60594;50.204;8.844;2022-08-26T09:33:30;99668.13;;;28.48;44.88
72570;BME280;60594;50.204;8.844;2022-08-26T09:38:42;99671.28;;;28.95;42.68
72570;BME280;60594;50.204;8.844;2022-08-26T09:41:27;99677.13;;;29.20;42.59
72570;BME280;60594;50.204;8.844;2022-08-26T09:44:15;99659.25;;;29.44;41.60
72570;BME280;60594;50.204;8.844;2022-08-26T09:46:45;99661.44;;;29.42;41.72
72570;BME280;60594;50.204;8.844;2022-08-26T09:52:18;99649.88;;;29.93;40.92
72570;BME280;60594;50.204;8.844;2022-08-26T09:55:05;99650.47;;;29.95;39.96
72570;BME280;60594;50.204;8.844;2022-08-26T09:57:34;99641.38;;;29.95;40.14
72570;BME280;60594;50.204;8.844;2022-08-26T10:00:40;99639.09;;;29.82;40.52
72570;BME280;60594;50.204;8.844;2022-08-26T10:03:12;99635.16;;;30.04;40.09
72570;BME280;60594;50.204;8.844;2022-08-26T10:08:35;99634.69;;;30.49;38.89
72570;BME280;60594;50.204;8.844;2022-08-26T10:11:14;99631.91;;;30.44;38.13
72570;BME280;60594;50.204;8.844;2022-08-26T10:13:47;99617.75;;;30.25;39.67
72570;BME280;60594;50.204;8.844;2022-08-26T10:16:40;99615.53;;;30.64;39.12
72570;BME280;60594;50.204;8.844;2022-08-26T10:19:41;99610.41;;;30.82;38.47
72570;BME280;60594;50.204;8.844;2022-08-26T10:24:45;99602.50;;;31.01;37.99
72570;BME280;60594;50.204;8.844;2022-08-26T10:27:26;99599.22;;;31.04;37.10
72570;BME280;60594;50.204;8.844;2022-08-26T10:30:03;99595.91;;;31.02;36.85
72570;BME280;60594;50.204;8.844;2022-08-26T10:32:42;99592.91;;;31.13;37.91
72570;BME280;60594;50.204;8.844;2022-08-26T10:35:11;99587.09;;;31.10;35.56
72570;BME280;60594;50.204;8.844;2022-08-26T10:37:44;99586.25;;;30.99;36.04
72570;BME280;60594;50.204;8.844;2022-08-26T10:40:17;99582.25;;;31.32;37.07
72570;BME280;60594;50.204;8.844;2022-08-26T10:42:47;99582.31;;;31.62;35.41
72570;BME280;60594;50.204;8.844;2022-08-26T10:45:18;99582.31;;;31.77;35.73
72570;BME280;60594;50.204;8.844;2022-08-26T10:47:59;99576.22;;;31.65;34.63
72570;BME280;60594;50.204;8.844;2022-08-26T10:50:35;99573.91;;;31.17;35.22
72570;BME280;60594;50.204;8.844;2022-08-26T10:56:23;99573.06;;;31.01;37.40
72570;BME280;60594;50.204;8.844;2022-08-26T10:59:14;99569.59;;;31.41;36.33
72570;BME280;60594;50.204;8.844;2022-08-26T11:01:52;99574.84;;;31.42;35.93
72570;BME280;60594;50.204;8.844;2022-08-26T11:15:10;99567.69;;;32.27;33.68
72570;BME280;60594;50.204;8.844;2022-08-26T11:20:44;99565.72;;;31.42;34.60
72570;BME280;60594;50.204;8.844;2022-08-26T11:28:45;99553.38;;;32.05;34.86
72570;BME280;60594;50.204;8.844;2022-08-26T11:33:53;99539.81;;;32.13;33.00
72570;BME280;60594;50.204;8.844;2022-08-26T11:36:56;99536.50;;;32.31;34.07
72570;BME280;60594;50.204;8.844;2022-08-26T11:39:49;99527.25;;;32.76;32.38
72570;BME280;60594;50.204;8.844;2022-08-26T11:44:54;99521.72;;;32.76;33.30
72570;BME280;60594;50.204;8.844;2022-08-26T11:47:28;99528.09;;;32.71;32.41
72570;BME280;60594;50.204;8.844;2022-08-26T11:50:25;99526.47;;;32.60;31.91
72570;BME280;60594;50.204;8.844;2022-08-26T11:52:59;99515.13;;;32.67;32.36
72570;BME280;60594;50.204;8.844;2022-08-26T11:55:33;99509.84;;;32.85;32.19
72570;BME280;60594;50.204;8.844;2022-08-26T11:58:02;99510.41;;;32.72;32.51
72570;BME280;60594;50.204;8.844;2022-08-26T12:00:33;99508.03;;;32.51;31.88
72570;BME280;60594;50.204;8.844;2022-08-26T12:03:18;99508.72;;;32.86;32.45
72570;BME280;60594;50.204;8.844;2022-08-26T12:05:47;99500.34;;;33.06;31.13
72570;BME280;60594;50.204;8.844;2022-08-26T12:08:26;99499.88;;;32.89;30.74
72570;BME280;60594;50.204;8.844;2022-08-26T12:11:10;99505.03;;;32.47;31.76
72570;BME280;60594;50.204;8.844;2022-08-26T12:13:39;99507.81;;;32.27;32.31
72570;BME280;60594;50.204;8.844;2022-08-26T12:16:07;99505.09;;;32.12;33.08
72570;BME280;60594;50.204;8.844;2022-08-26T12:18:36;99508.16;;;31.96;33.19
72570;BME280;60594;50.204;8.844;2022-08-26T12:21:24;99493.00;;;31.73;33.31
72570;BME280;60594;50.204;8.844;2022-08-26T12:23:53;99497.97;;;31.66;33.42
72570;BME280;60594;50.204;8.844;2022-08-26T12:31:40;99490.25;;;31.38;34.13
72570;BME280;60594;50.204;8.844;2022-08-26T12:34:09;99478.34;;;31.22;33.82
72570;BME280;60594;50.204;8.844;2022-08-26T12:36:55;99474.47;;;31.18;34.71
72570;BME280;60594;50.204;8.844;2022-08-26T12:39:32;99475.31;;;31.19;34.29
72570;BME280;60594;50.204;8.844;2022-08-26T12:45:02;99466.53;;;31.22;34.44
72570;BME280;60594;50.204;8.844;2022-08-26T12:47:52;99473.69;;;31.28;35.64
72570;BME280;60594;50.204;8.844;2022-08-26T12:50:22;99478.94;;;31.24;37.08
72570;BME280;60594;50.204;8.844;2022-08-26T12:55:40;99481.03;;;30.77;38.25
72570;BME280;60594;50.204;8.844;2022-08-26T13:00:47;99484.22;;;30.54;38.27
72570;BME280;60594;50.204;8.844;2022-08-26T13:14:22;99467.69;;;30.03;39.52
72570;BME280;60594;50.204;8.844;2022-08-26T13:16:49;99476.25;;;30.06;38.28
72570;BME280;60594;50.204;8.844;2022-08-26T13:19:20;99466.91;;;30.12;37.63
72570;BME280;60594;50.204;8.844;2022-08-26T13:21:53;99456.00;;;30.17;36.92
72570;BME280;60594;50.204;8.844;2022-08-26T13:24:27;99447.50;;;30.24;36.00
72570;BME280;60594;50.204;8.844;2022-08-26T13:26:57;99448.94;;;30.31;36.87
72570;BME280;60594;50.204;8.844;2022-08-26T13:29:24;99447.56;;;30.39;35.52
72570;BME280;60594;50.204;8.844;2022-08-26T13:31:50;99450.06;;;30.45;35.19
72570;BME280;60594;50.204;8.844;2022-08-26T13:34:19;99439.63;;;30.42;35.34
72570;BME280;60594;50.204;8.844;2022-08-26T13:36:49;99445.66;;;30.44;35.70
72570;BME280;60594;50.204;8.844;2022-08-26T13:39:17;99446.22;;;30.51;35.02
72570;BME280;60594;50.204;8.844;2022-08-26T13:41:45;99440.19;;;30.54;34.72
72570;BME280;60594;50.204;8.844;2022-08-26T13:44:12;99433.63;;;30.60;35.43
72570;BME280;60594;50.204;8.844;2022-08-26T13:46:39;99443.25;;;30.68;35.34
72570;BME280;60594;50.204;8.844;2022-08-26T13:49:06;99450.97;;;30.66;36.60
72570;BME280;60594;50.204;8.844;2022-08-26T13:51:35;99453.59;;;30.31;38.04
72570;BME280;60594;50.204;8.844;2022-08-26T13:54:05;99454.53;;;30.05;38.42
72570;BME280;60594;50.204;8.844;2022-08-26T13:56:33;99463.28;;;29.97;38.91
72570;BME280;60594;50.204;8.844;2022-08-26T13:58:59;99459.44;;;29.98;38.83
72570;BME280;60594;50.204;8.844;2022-08-26T14:01:28;99458.34;;;29.99;38.28
72570;BME280;60594;50.204;8.844;2022-08-26T14:03:59;99460.78;;;29.95;39.19
72570;BME280;60594;50.204;8.844;2022-08-26T14:06:28;99463.28;;;29.97;39.15
72570;BME280;60594;50.204;8.844;2022-08-26T14:08:57;99456.94;;;29.96;39.29
72570;BME280;60594;50.204;8.844;2022-08-26T14:11:23;99471.00;;;30.00;38.79
72570;BME280;60594;50.204;8.844;2022-08-26T14:13:50;99460.41;;;29.77;38.97
72570;BME280;60594;50.204;8.844;2022-08-26T14:16:30;99456.56;;;29.78;39.24
72570;BME280;60594;50.204;8.844;2022-08-26T14:18:58;99455.28;;;29.90;38.18
72570;BME280;60594;50.204;8.844;2022-08-26T14:21:31;99446.13;;;29.80;38.07
72570;BME280;60594;50.204;8.844;2022-08-26T14:23:59;99451.84;;;29.68;38.98
72570;BME280;60594;50.204;8.844;2022-08-26T14:26:25;99455.63;;;29.62;38.59